Time;durP1;ratioP1;P1;durP2;ratioP2;P2;SDS_P1;SDS_P2;PMS_P1;PMS_P2;Temp;Humidity;BMP_temperature;BMP_pressure;BME280_temperature;BME280_humidity;BME280_pressure;Samples;Min_cycle;Max_cycle;Signal;HPM_P1;HPM_P2
2022/10/25 00:01:41;;;;;;;2.00;1.17;;;17.80;65.60;;;;;;5044636;28;20192;-54
2022/10/25 00:04:06;;;;;;;1.30;1.00;;;17.30;67.90;;;;;;5044545;28;20192;-54
2022/10/25 00:06:32;;;;;;;3.00;1.40;;;17.20;68.90;;;;;;5045067;28;20492;-54
2022/10/25 00:08:57;;;;;;;1.30;1.10;;;17.00;69.60;;;;;;5043108;28;20215;-53
2022/10/25 00:11:26;;;;;;;2.50;1.63;;;17.00;70.00;;;;;;5038797;28;20200;-54
2022/10/25 00:13:54;;;;;;;1.20;0.90;;;17.10;69.90;;;;;;5040964;28;20192;-54
2022/10/25 00:16:23;;;;;;;2.80;1.13;;;16.90;70.70;;;;;;5037727;28;20814;-52
2022/10/25 00:18:49;;;;;;;3.13;1.60;;;17.00;70.30;;;;;;5042828;28;20481;-51
2022/10/25 00:21:15;;;;;;;2.20;1.20;;;17.10;69.70;;;;;;5041738;28;20469;-54
2022/10/25 00:23:41;;;;;;;2.50;1.17;;;17.20;69.50;;;;;;5041580;28;20443;-53
2022/10/25 00:26:08;;;;;;;2.40;1.20;;;16.90;70.70;;;;;;5047463;28;20688;-54
2022/10/25 00:28:34;;;;;;;1.93;1.27;;;16.70;71.30;;;;;;5042396;28;20673;-51
2022/10/25 00:31:05;;;;;;;2.03;1.20;;;16.60;72.40;;;;;;5046985;28;20538;-54
2022/10/25 00:33:32;;;;;;;7.73;1.60;;;16.40;73.10;;;;;;5047503;28;20270;-51
2022/10/25 00:36:09;;;;;;;1.53;1.13;;;16.50;73.40;;;;;;5045087;28;20458;-54
2022/10/25 00:38:36;;;;;;;2.60;1.20;;;16.50;73.60;;;;;;5042380;28;21065;-53
2022/10/25 00:41:01;;;;;;;5.53;1.60;;;16.50;73.30;;;;;;5038217;28;20486;-52
2022/10/25 00:43:33;;;;;;;1.50;1.33;;;16.50;73.20;;;;;;5040102;28;20475;-53
2022/10/25 00:46:02;;;;;;;1.53;1.37;;;16.70;72.20;;;;;;5034311;28;20456;-53
2022/10/25 00:48:28;;;;;;;2.33;1.20;;;16.50;72.10;;;;;;5045819;28;20435;-54
2022/10/25 00:50:54;;;;;;;1.40;1.30;;;16.60;72.20;;;;;;5044073;28;20790;-53
2022/10/25 00:53:24;;;;;;;1.77;1.20;;;16.70;71.80;;;;;;5044469;28;20450;-54
2022/10/25 00:56:06;;;;;;;1.33;1.13;;;16.80;71.10;;;;;;5032573;28;20797;-54
2022/10/25 00:58:36;;;;;;;2.57;1.13;;;17.10;70.00;;;;;;5042240;28;20988;-55
2022/10/25 01:01:05;;;;;;;1.33;1.23;;;17.00;69.70;;;;;;5040944;28;20497;-53
2022/10/25 01:03:35;;;;;;;1.73;1.40;;;17.20;69.10;;;;;;5040283;28;20977;-54
2022/10/25 01:06:04;;;;;;;2.80;1.30;;;17.40;68.60;;;;;;5044539;28;20442;-54
2022/10/25 01:08:31;;;;;;;4.30;1.50;;;17.50;68.20;;;;;;5039299;28;20451;-53
2022/10/25 01:10:56;;;;;;;3.50;1.50;;;17.50;67.90;;;;;;5038895;28;20435;-54
2022/10/25 01:13:22;;;;;;;1.50;1.40;;;17.40;68.10;;;;;;5043494;28;20458;-52
2022/10/25 01:15:47;;;;;;;2.00;1.30;;;17.40;68.10;;;;;;5036741;28;20205;-53
2022/10/25 01:18:29;;;;;;;1.70;1.40;;;17.40;68.10;;;;;;5034565;28;22077;-54
2022/10/25 01:21:22;;;;;;;2.83;1.17;;;17.50;67.50;;;;;;5040114;28;20224;-50
2022/10/25 01:24:20;;;;;;;1.73;1.47;;;17.60;67.60;;;;;;5045663;28;20457;-53
2022/10/25 01:27:09;;;;;;;6.20;1.30;;;17.70;66.80;;;;;;5045068;28;20998;-53
2022/10/25 01:29:57;;;;;;;2.40;1.27;;;17.60;67.60;;;;;;5047267;28;20446;-54
2022/10/25 01:32:42;;;;;;;2.70;1.43;;;17.80;67.00;;;;;;5050490;28;20505;-51
2022/10/25 01:35:33;;;;;;;1.80;1.20;;;17.70;66.70;;;;;;5034792;28;20523;-55
2022/10/25 01:38:27;;;;;;;1.80;1.30;;;17.60;66.90;;;;;;5048200;28;20490;-52
2022/10/25 01:41:01;;;;;;;2.70;1.40;;;17.60;67.10;;;;;;5016942;28;20494;-55
2022/10/25 01:43:47;;;;;;;2.50;1.40;;;17.50;67.00;;;;;;5051051;28;20972;-54
2022/10/25 01:46:24;;;;;;;1.97;1.60;;;17.60;66.60;;;;;;5039471;28;20850;-55
2022/10/25 01:48:58;;;;;;;1.90;1.60;;;17.50;67.10;;;;;;5045254;28;20455;-54
2022/10/25 01:51:26;;;;;;;2.43;1.33;;;17.50;67.00;;;;;;5045832;28;20450;-50
2022/10/25 01:53:52;;;;;;;5.27;1.23;;;17.30;67.20;;;;;;5043730;28;20930;-54
2022/10/25 01:56:33;;;;;;;2.77;1.50;;;17.20;68.30;;;;;;5041331;28;20493;-51
2022/10/25 01:59:19;;;;;;;1.40;1.30;;;17.20;68.10;;;;;;5043461;28;20237;-54
2022/10/25 02:02:03;;;;;;;3.50;1.37;;;17.10;68.70;;;;;;5041848;28;21143;-53
2022/10/25 02:04:49;;;;;;;1.83;1.30;;;16.80;69.80;;;;;;5049827;28;20592;-54
2022/10/25 02:07:56;;;;;;;2.30;1.13;;;16.90;69.80;;;;;;5043757;28;20459;-54
2022/10/25 02:10:43;;;;;;;4.33;1.30;;;17.20;69.00;;;;;;5031283;28;20513;-51
2022/10/25 02:13:39;;;;;;;4.33;1.60;;;17.10;68.60;;;;;;5046766;28;20438;-53
2022/10/25 02:16:08;;;;;;;1.90;1.60;;;17.00;68.80;;;;;;5040700;28;20451;-54
2022/10/25 02:18:40;;;;;;;3.83;2.03;;;16.90;69.50;;;;;;5045782;28;20451;-52
2022/10/25 02:21:06;;;;;;;4.10;1.87;;;16.80;69.70;;;;;;5048368;28;20498;-52
2022/10/25 02:23:35;;;;;;;3.10;2.63;;;16.70;70.30;;;;;;5045188;28;20447;-54
2022/10/25 02:26:03;;;;;;;2.37;2.17;;;16.70;70.80;;;;;;5046863;28;20462;-54
2022/10/25 02:28:31;;;;;;;3.80;1.37;;;16.80;70.50;;;;;;5049958;28;20454;-54
2022/10/25 02:30:59;;;;;;;2.20;1.73;;;16.80;70.00;;;;;;5047755;28;20439;-54
2022/10/25 02:33:24;;;;;;;2.47;1.40;;;16.80;70.10;;;;;;5045053;28;20439;-55
2022/10/25 02:36:12;;;;;;;2.80;1.80;;;16.80;70.30;;;;;;5049251;28;20938;-55
2022/10/25 02:38:38;;;;;;;3.30;1.30;;;16.90;70.30;;;;;;5038654;28;20913;-54
2022/10/25 02:41:05;;;;;;;4.20;2.73;;;16.80;69.90;;;;;;5044855;28;20518;-54
2022/10/25 02:43:31;;;;;;;2.47;2.00;;;16.70;70.50;;;;;;5040914;28;20435;-54
2022/10/25 02:45:57;;;;;;;2.30;1.80;;;16.90;70.00;;;;;;5044928;28;20466;-54
2022/10/25 02:48:22;;;;;;;2.47;1.80;;;17.00;69.50;;;;;;5044744;28;20451;-54
2022/10/25 02:50:48;;;;;;;5.17;1.70;;;17.20;69.20;;;;;;5046177;28;20508;-53
2022/10/25 02:53:14;;;;;;;2.60;1.77;;;17.30;68.80;;;;;;5042723;28;20196;-54
2022/10/25 02:55:39;;;;;;;7.23;2.00;;;17.30;68.90;;;;;;5029311;28;20232;-53
2022/10/25 02:58:05;;;;;;;2.40;1.90;;;17.30;68.20;;;;;;5041234;28;20200;-54
2022/10/25 03:00:30;;;;;;;2.20;1.60;;;17.40;67.90;;;;;;5046018;28;20637;-51
2022/10/25 03:02:56;;;;;;;3.50;1.40;;;17.00;68.10;;;;;;5044083;28;20200;-55
2022/10/25 03:05:22;;;;;;;2.07;1.63;;;17.00;68.80;;;;;;5041551;28;20223;-53
2022/10/25 03:07:47;;;;;;;2.50;1.63;;;17.20;68.70;;;;;;5043980;28;20443;-53
2022/10/25 03:10:13;;;;;;;2.10;1.57;;;17.30;68.30;;;;;;5043393;28;20208;-54
2022/10/25 03:12:39;;;;;;;2.80;1.50;;;17.50;67.40;;;;;;5017801;28;20284;-54
2022/10/25 03:15:05;;;;;;;3.20;2.03;;;17.60;67.10;;;;;;5044000;28;20606;-54
2022/10/25 03:17:31;;;;;;;6.93;2.03;;;17.20;67.70;;;;;;5045699;28;20577;-54
2022/10/25 03:19:56;;;;;;;2.67;1.83;;;17.30;68.00;;;;;;5037705;28;20478;-52
2022/10/25 03:22:22;;;;;;;4.40;1.67;;;17.40;67.30;;;;;;5038567;28;20743;-54
2022/10/25 03:24:47;;;;;;;4.93;1.67;;;17.30;67.20;;;;;;5040988;28;20270;-52
2022/10/25 03:27:13;;;;;;;3.50;2.00;;;17.50;67.20;;;;;;5044307;28;20197;-52
2022/10/25 03:29:39;;;;;;;3.90;1.67;;;17.50;66.90;;;;;;5048103;28;20197;-54
2022/10/25 03:32:06;;;;;;;2.07;1.40;;;17.50;67.10;;;;;;5018611;28;20199;-53
2022/10/25 03:34:32;;;;;;;3.50;1.67;;;17.60;67.00;;;;;;5043985;28;20201;-51
2022/10/25 03:36:58;;;;;;;4.80;1.70;;;17.60;66.60;;;;;;5041693;28;20498;-54
2022/10/25 03:39:23;;;;;;;8.63;1.53;;;17.60;66.60;;;;;;5041477;28;20487;-51
2022/10/25 03:41:49;;;;;;;1.93;1.60;;;17.40;68.20;;;;;;5036956;28;20360;-51
2022/10/25 03:44:15;;;;;;;5.00;2.30;;;17.40;67.70;;;;;;5044356;28;20192;-55
2022/10/25 03:46:40;;;;;;;6.10;2.33;;;17.40;67.60;;;;;;5042630;28;20204;-50
2022/10/25 03:49:06;;;;;;;3.77;1.40;;;17.50;67.20;;;;;;5044000;28;20212;-51
2022/10/25 03:51:32;;;;;;;4.57;2.50;;;17.50;67.20;;;;;;5047597;28;20207;-54
2022/10/25 03:53:57;;;;;;;3.77;1.60;;;17.50;67.40;;;;;;5044174;28;20224;-53
2022/10/25 03:56:23;;;;;;;1.90;1.70;;;17.60;66.90;;;;;;5046854;28;20243;-54
2022/10/25 03:58:48;;;;;;;3.67;1.80;;;17.70;66.70;;;;;;5042611;28;20212;-54
2022/10/25 04:01:14;;;;;;;2.90;1.90;;;17.60;66.40;;;;;;5042281;28;20201;-52
2022/10/25 04:03:39;;;;;;;5.00;1.90;;;17.60;66.70;;;;;;5048043;28;20220;-53
2022/10/25 04:06:05;;;;;;;3.10;1.87;;;17.60;66.60;;;;;;5041608;28;20197;-54
2022/10/25 04:08:31;;;;;;;2.03;1.87;;;17.60;66.50;;;;;;5035649;28;20544;-51
2022/10/25 04:10:56;;;;;;;2.93;1.83;;;17.60;66.40;;;;;;5045674;28;20445;-50
2022/10/25 04:13:22;;;;;;;2.63;1.63;;;17.60;66.60;;;;;;5042568;28;20200;-51
2022/10/25 04:15:48;;;;;;;2.93;1.97;;;17.60;66.80;;;;;;5042967;28;20191;-52
2022/10/25 04:18:13;;;;;;;2.57;1.70;;;17.50;67.20;;;;;;5045098;28;20714;-52
2022/10/25 04:20:39;;;;;;;4.80;2.00;;;17.50;67.30;;;;;;5040405;28;20303;-52
2022/10/25 04:23:04;;;;;;;2.83;1.97;;;17.50;67.00;;;;;;5043965;28;20258;-51
2022/10/25 04:25:30;;;;;;;12.33;2.10;;;17.50;67.10;;;;;;5044894;28;20224;-50
2022/10/25 04:27:58;;;;;;;3.63;2.00;;;17.50;67.10;;;;;;5044341;28;20279;-54
2022/10/25 04:30:23;;;;;;;4.20;2.33;;;17.60;67.00;;;;;;5039700;28;20622;-51
2022/10/25 04:32:49;;;;;;;1.97;1.70;;;17.50;67.00;;;;;;5040127;28;20522;-51
2022/10/25 04:35:15;;;;;;;2.87;1.70;;;17.50;67.10;;;;;;5040444;28;20983;-51
2022/10/25 04:37:40;;;;;;;3.57;2.40;;;17.50;67.10;;;;;;5033924;28;20240;-51
2022/10/25 04:40:07;;;;;;;2.47;1.90;;;17.30;67.60;;;;;;5040729;28;20243;-54
2022/10/25 04:42:34;;;;;;;4.43;2.00;;;17.50;67.20;;;;;;5040781;28;20271;-51
2022/10/25 04:45:00;;;;;;;3.67;2.17;;;17.60;66.80;;;;;;5042820;28;20571;-50
2022/10/25 04:47:28;;;;;;;3.60;1.90;;;17.70;66.40;;;;;;5043903;28;20443;-52
2022/10/25 04:49:54;;;;;;;2.67;1.90;;;17.70;67.00;;;;;;5040464;28;20543;-51
2022/10/25 04:52:20;;;;;;;6.63;2.83;;;17.70;66.00;;;;;;5042840;28;20994;-50
2022/10/25 04:54:46;;;;;;;2.30;1.80;;;17.70;66.00;;;;;;5047547;28;20270;-54
2022/10/25 04:57:11;;;;;;;2.93;1.63;;;17.70;65.70;;;;;;5044370;28;20841;-53
2022/10/25 04:59:37;;;;;;;2.70;1.87;;;17.60;65.70;;;;;;5046486;28;20274;-51
2022/10/25 05:02:03;;;;;;;2.13;1.90;;;17.70;65.80;;;;;;5050422;28;20195;-53
2022/10/25 05:04:28;;;;;;;4.37;1.93;;;17.60;65.60;;;;;;5051879;28;20281;-53
2022/10/25 05:06:54;;;;;;;2.60;1.80;;;17.60;65.80;;;;;;5047581;28;20197;-53
2022/10/25 05:09:19;;;;;;;7.30;2.33;;;17.50;65.90;;;;;;5052205;28;20603;-54
2022/10/25 05:11:45;;;;;;;2.80;2.33;;;17.50;66.20;;;;;;5053380;28;20558;-53
2022/10/25 05:14:10;;;;;;;2.13;2.00;;;17.50;66.20;;;;;;5046879;28;20246;-53
2022/10/25 05:16:38;;;;;;;4.93;2.20;;;17.50;66.40;;;;;;5046803;28;20204;-53
2022/10/25 05:19:03;;;;;;;2.57;1.60;;;17.40;66.40;;;;;;5049082;28;20185;-54
2022/10/25 05:21:29;;;;;;;3.20;1.93;;;17.50;66.40;;;;;;5047904;28;20445;-53
2022/10/25 05:23:59;;;;;;;2.40;1.63;;;17.30;66.60;;;;;;5043854;28;20680;-54
2022/10/25 05:26:25;;;;;;;4.27;1.93;;;17.10;67.20;;;;;;5050660;28;20262;-54
2022/10/25 05:28:52;;;;;;;2.17;1.70;;;17.10;67.70;;;;;;5043342;28;20482;-52
2022/10/25 05:31:21;;;;;;;8.40;2.27;;;17.20;67.50;;;;;;5041802;28;21013;-53
2022/10/25 05:33:52;;;;;;;4.40;2.27;;;17.40;66.90;;;;;;5044381;28;20504;-54
2022/10/25 05:36:18;;;;;;;4.47;2.37;;;17.50;66.50;;;;;;5051182;28;20510;-55
2022/10/25 05:38:44;;;;;;;3.13;2.30;;;17.60;68.10;;;;;;5048201;28;20471;-54
2022/10/25 05:41:12;;;;;;;8.70;1.93;;;17.80;68.60;;;;;;5047035;28;20528;-54
2022/10/25 05:43:38;;;;;;;3.03;1.80;;;18.00;69.00;;;;;;5040198;28;20451;-55
2022/10/25 05:46:09;;;;;;;3.60;2.30;;;18.10;68.80;;;;;;5046108;28;20443;-55
2022/10/25 05:48:36;;;;;;;3.60;1.80;;;18.30;68.00;;;;;;5046061;28;20971;-55
2022/10/25 05:51:19;;;;;;;4.87;2.43;;;18.40;66.60;;;;;;5044990;28;20435;-56
2022/10/25 05:53:47;;;;;;;2.10;1.73;;;18.40;65.60;;;;;;5044582;28;21336;-54
2022/10/25 05:56:13;;;;;;;2.67;2.23;;;18.40;63.40;;;;;;5049090;28;20435;-54
2022/10/25 05:58:39;;;;;;;2.30;2.00;;;18.30;62.90;;;;;;5040408;28;20451;-55
2022/10/25 06:01:06;;;;;;;2.70;1.90;;;18.30;62.90;;;;;;5046963;28;20227;-54
2022/10/25 06:03:32;;;;;;;5.53;2.10;;;18.20;62.80;;;;;;5051134;28;20435;-55
2022/10/25 06:06:02;;;;;;;5.07;1.80;;;18.10;63.30;;;;;;5047312;28;20942;-55
2022/10/25 06:08:29;;;;;;;4.13;1.83;;;18.10;63.30;;;;;;5050480;28;20544;-54
2022/10/25 06:11:03;;;;;;;4.40;2.33;;;18.10;63.50;;;;;;5041833;28;20442;-54
2022/10/25 06:13:29;;;;;;;4.63;1.70;;;18.10;63.30;;;;;;5033032;28;20458;-55
2022/10/25 06:15:54;;;;;;;6.47;2.00;;;18.10;63.30;;;;;;5045359;28;20451;-55
2022/10/25 06:18:20;;;;;;;4.00;2.23;;;18.10;63.30;;;;;;5046372;28;20439;-54
2022/10/25 06:20:46;;;;;;;4.90;1.90;;;18.00;64.00;;;;;;5048223;28;20264;-55
2022/10/25 06:23:11;;;;;;;4.40;2.00;;;18.00;64.60;;;;;;5048492;28;20192;-55
2022/10/25 06:25:37;;;;;;;5.03;1.90;;;18.20;64.30;;;;;;5048061;28;20204;-53
2022/10/25 06:28:03;;;;;;;3.83;1.80;;;18.20;63.80;;;;;;5044595;28;20216;-54
2022/10/25 06:30:30;;;;;;;2.80;1.53;;;18.20;63.90;;;;;;5041726;28;20197;-51
2022/10/25 06:32:55;;;;;;;3.60;1.90;;;18.00;64.00;;;;;;5045072;28;20539;-55
2022/10/25 06:35:21;;;;;;;5.00;1.63;;;18.20;65.10;;;;;;5050375;28;20530;-55
2022/10/25 06:37:46;;;;;;;2.63;1.73;;;18.30;64.50;;;;;;5049753;28;20249;-54
2022/10/25 06:40:12;;;;;;;2.10;1.40;;;18.50;64.20;;;;;;5051444;28;20586;-54
2022/10/25 06:42:38;;;;;;;3.57;1.77;;;18.80;63.30;;;;;;5052285;28;20200;-55
2022/10/25 06:45:04;;;;;;;3.27;1.97;;;18.80;62.30;;;;;;5050147;28;20192;-54
2022/10/25 06:47:29;;;;;;;5.60;1.90;;;19.10;61.90;;;;;;5039870;28;20251;-54
2022/10/25 06:49:55;;;;;;;2.43;1.70;;;19.40;60.40;;;;;;5048379;28;20443;-54
2022/10/25 06:52:21;;;;;;;3.33;1.90;;;19.50;60.10;;;;;;5050184;28;20189;-54
2022/10/25 06:54:46;;;;;;;5.87;1.87;;;19.70;59.80;;;;;;5047805;28;20184;-54
2022/10/25 06:57:12;;;;;;;4.13;1.70;;;19.80;59.10;;;;;;5049554;28;20193;-52
2022/10/25 06:59:37;;;;;;;3.03;1.60;;;19.90;60.20;;;;;;5044112;28;20598;-54
2022/10/25 07:02:03;;;;;;;5.27;1.67;;;20.10;59.50;;;;;;5050758;28;20250;-50
2022/10/25 07:04:31;;;;;;;1.73;1.30;;;20.20;58.20;;;;;;5044839;28;20200;-53
2022/10/25 07:06:57;;;;;;;2.33;1.63;;;20.00;58.00;;;;;;5033980;28;20210;-52
2022/10/25 07:09:24;;;;;;;2.63;1.67;;;19.50;59.10;;;;;;5050938;28;20509;-50
2022/10/25 07:11:50;;;;;;;2.83;1.87;;;19.80;59.40;;;;;;5047056;28;20427;-49
2022/10/25 07:14:15;;;;;;;2.10;1.67;;;20.20;58.00;;;;;;5048018;28;20519;-53
2022/10/25 07:16:41;;;;;;;2.90;1.90;;;20.50;57.60;;;;;;5033087;28;20281;-53
2022/10/25 07:19:08;;;;;;;2.47;1.60;;;20.80;57.00;;;;;;5034845;28;20603;-54
2022/10/25 07:21:34;;;;;;;2.53;1.80;;;20.80;56.20;;;;;;5037375;28;20243;-52
2022/10/25 07:24:00;;;;;;;4.23;1.60;;;20.90;56.50;;;;;;5050373;28;20421;-53
2022/10/25 07:26:31;;;;;;;9.87;1.67;;;21.10;56.70;;;;;;5048051;28;20321;-53
2022/10/25 07:28:58;;;;;;;2.30;2.10;;;21.30;56.30;;;;;;5049549;28;20192;-53
2022/10/25 07:31:29;;;;;;;2.40;1.77;;;21.40;56.00;;;;;;5045867;28;20810;-52
2022/10/25 07:33:57;;;;;;;3.97;1.70;;;21.40;55.80;;;;;;5046077;28;20439;-54
2022/10/25 07:36:23;;;;;;;6.23;1.83;;;21.00;56.00;;;;;;5029560;28;20431;-53
2022/10/25 07:38:49;;;;;;;4.17;1.80;;;21.00;56.50;;;;;;5036917;28;20443;-52
2022/10/25 07:41:15;;;;;;;4.00;2.07;;;21.10;56.60;;;;;;5030052;28;20568;-53
2022/10/25 07:43:40;;;;;;;1.57;1.47;;;21.10;56.30;;;;;;5027896;28;20197;-53
2022/10/25 07:46:06;;;;;;;2.53;1.50;;;21.10;56.40;;;;;;5031816;28;20435;-53
2022/10/25 07:48:33;;;;;;;2.17;1.97;;;20.90;56.20;;;;;;5008991;28;20196;-53
2022/10/25 07:51:10;;;;;;;2.00;1.40;;;20.80;56.70;;;;;;5032943;28;20957;-52
2022/10/25 07:53:36;;;;;;;2.07;1.60;;;20.60;57.70;;;;;;5051037;28;20815;-54
2022/10/25 07:56:01;;;;;;;2.20;1.50;;;20.60;56.90;;;;;;5047788;28;20538;-52
2022/10/25 07:58:27;;;;;;;4.17;2.10;;;20.80;57.50;;;;;;5037268;28;20192;-51
2022/10/25 08:00:59;;;;;;;3.80;1.53;;;21.00;56.90;;;;;;5046740;28;20220;-53
2022/10/25 08:03:25;;;;;;;2.50;1.60;;;21.20;56.10;;;;;;5032158;28;20196;-54
2022/10/25 08:05:50;;;;;;;2.80;2.23;;;21.30;55.60;;;;;;5028045;28;20445;-52
2022/10/25 08:08:16;;;;;;;2.20;1.30;;;20.60;56.80;;;;;;5030769;28;20200;-54
2022/10/25 08:10:42;;;;;;;3.23;1.53;;;20.40;58.20;;;;;;5030258;28;20641;-54
2022/10/25 08:13:08;;;;;;;5.30;1.73;;;20.50;58.10;;;;;;5023276;28;20205;-54
2022/10/25 08:15:35;;;;;;;2.70;1.60;;;20.80;57.90;;;;;;5032624;28;20455;-54
2022/10/25 08:18:01;;;;;;;2.33;1.60;;;20.60;57.90;;;;;;5037818;28;20570;-54
2022/10/25 08:20:28;;;;;;;3.53;1.73;;;20.70;57.60;;;;;;5037887;28;20493;-50
2022/10/25 08:22:58;;;;;;;4.23;1.63;;;20.80;58.10;;;;;;5032537;28;20823;-54
2022/10/25 08:25:24;;;;;;;3.20;1.60;;;20.90;57.80;;;;;;5031099;28;20443;-51
2022/10/25 08:27:50;;;;;;;3.13;1.60;;;20.90;56.70;;;;;;5028723;28;20517;-54
2022/10/25 08:30:15;;;;;;;4.03;1.60;;;20.80;57.60;;;;;;5029846;28;20473;-50
2022/10/25 08:32:41;;;;;;;2.43;1.60;;;20.90;57.60;;;;;;5027499;28;20220;-54
2022/10/25 08:35:07;;;;;;;3.67;1.77;;;20.90;57.80;;;;;;5032611;28;20211;-54
2022/10/25 08:37:32;;;;;;;4.10;1.27;;;21.20;57.30;;;;;;5029739;28;20232;-53
2022/10/25 08:39:58;;;;;;;2.70;1.60;;;21.40;56.80;;;;;;5042209;28;20387;-52
2022/10/25 08:42:59;;;;;;;5.23;1.73;;;21.20;55.30;;;;;;5030157;28;20321;-50
2022/10/25 08:45:30;;;;;;;3.67;1.37;;;21.10;55.70;;;;;;5005819;28;20205;-53
2022/10/25 08:47:57;;;;;;;2.20;1.30;;;21.20;55.70;;;;;;5028501;28;21979;-50
2022/10/25 08:50:39;;;;;;;2.20;1.50;;;21.30;55.70;;;;;;5031881;28;20933;-54
2022/10/25 08:53:13;;;;;;;2.47;1.40;;;21.20;55.80;;;;;;5029864;28;20446;-53
2022/10/25 08:55:43;;;;;;;2.50;1.70;;;21.30;55.80;;;;;;5028167;28;20450;-54
2022/10/25 08:58:24;;;;;;;3.40;1.47;;;21.20;55.70;;;;;;5032287;28;20478;-54
2022/10/25 09:00:50;;;;;;;2.23;1.40;;;21.30;55.60;;;;;;5032315;28;20950;-52
2022/10/25 09:03:24;;;;;;;3.53;1.30;;;21.30;55.50;;;;;;5034242;28;20450;-54
2022/10/25 09:05:58;;;;;;;3.67;1.60;;;21.40;55.40;;;;;;5029669;28;20196;-51
2022/10/25 09:08:27;;;;;;;4.13;1.60;;;21.30;55.40;;;;;;5030445;28;22354;-52
2022/10/25 09:10:57;;;;;;;4.63;1.30;;;21.60;55.50;;;;;;5033866;28;20573;-50
2022/10/25 09:13:41;;;;;;;2.70;1.23;;;21.70;55.00;;;;;;5031933;28;20805;-50
2022/10/25 09:16:18;;;;;;;1.93;1.40;;;21.70;55.20;;;;;;5032270;28;20450;-50
2022/10/25 09:18:47;;;;;;;1.80;1.27;;;21.90;55.40;;;;;;5029192;28;20899;-50
2022/10/25 09:21:19;;;;;;;1.93;1.30;;;22.10;55.00;;;;;;5035137;28;20506;-53
2022/10/25 09:24:17;;;;;;;3.57;1.63;;;22.30;54.10;;;;;;5031236;28;21189;-50
2022/10/25 09:26:52;;;;;;;3.57;1.50;;;22.50;53.60;;;;;;5022197;28;20462;-50
2022/10/25 09:29:26;;;;;;;2.30;1.60;;;22.60;53.50;;;;;;5028716;28;20442;-52
2022/10/25 09:31:57;;;;;;;4.73;1.40;;;22.70;53.10;;;;;;5032251;28;22665;-51
2022/10/25 09:34:26;;;;;;;3.53;1.40;;;22.70;53.20;;;;;;5036360;28;20449;-50
2022/10/25 09:37:00;;;;;;;2.73;1.60;;;22.80;53.20;;;;;;5027145;28;20479;-51
2022/10/25 09:39:26;;;;;;;3.53;1.57;;;22.90;52.70;;;;;;5034117;28;20475;-52
2022/10/25 09:41:53;;;;;;;3.93;1.30;;;23.00;51.80;;;;;;5029234;28;20459;-54
2022/10/25 09:44:37;;;;;;;3.73;1.33;;;23.00;52.20;;;;;;5036506;28;20204;-53
2022/10/25 09:47:29;;;;;;;2.50;1.60;;;23.10;52.40;;;;;;5027160;28;21661;-53
2022/10/25 09:50:15;;;;;;;2.20;1.30;;;23.30;52.00;;;;;;5030864;28;20451;-52
2022/10/25 09:53:13;;;;;;;4.10;1.50;;;23.40;51.70;;;;;;5031521;28;21036;-52
2022/10/25 09:55:53;;;;;;;2.60;1.60;;;23.50;51.50;;;;;;5045026;28;20458;-51
2022/10/25 09:58:24;;;;;;;2.33;1.40;;;23.60;51.30;;;;;;5031025;28;20447;-53
2022/10/25 10:00:51;;;;;;;6.43;1.80;;;23.30;51.10;;;;;;5026841;28;20483;-54
2022/10/25 10:03:19;;;;;;;4.93;1.50;;;23.30;51.30;;;;;;5028908;28;20446;-50
2022/10/25 10:05:51;;;;;;;5.17;1.30;;;23.10;51.60;;;;;;5051385;28;20445;-52
2022/10/25 10:08:17;;;;;;;1.63;1.53;;;23.10;52.50;;;;;;5048408;28;20475;-52
2022/10/25 10:10:45;;;;;;;2.50;1.53;;;23.20;52.20;;;;;;5033857;28;20637;-51
2022/10/25 10:13:13;;;;;;;3.37;1.57;;;23.20;52.30;;;;;;5031328;28;20197;-53
2022/10/25 10:15:50;;;;;;;6.37;1.90;;;23.20;52.10;;;;;;5025290;28;20881;-50
2022/10/25 10:18:24;;;;;;;2.97;1.50;;;23.00;52.50;;;;;;5026789;28;20446;-52
2022/10/25 10:21:09;;;;;;;3.60;1.93;;;23.10;52.60;;;;;;5029684;28;20506;-54
2022/10/25 10:23:52;;;;;;;6.30;2.27;;;23.30;52.90;;;;;;5019095;28;20539;-53
2022/10/25 10:26:50;;;;;;;4.60;1.63;;;23.30;52.30;;;;;;5029794;28;20592;-52
2022/10/25 10:29:21;;;;;;;1.63;1.30;;;23.60;53.00;;;;;;5027948;28;20459;-51
2022/10/25 10:31:52;;;;;;;2.20;1.60;;;23.60;52.60;;;;;;5033451;28;20444;-51
2022/10/25 10:34:29;;;;;;;3.37;1.50;;;23.70;51.70;;;;;;5028039;28;20534;-54
2022/10/25 10:37:10;;;;;;;3.13;1.70;;;23.70;51.50;;;;;;5034754;28;20479;-54
2022/10/25 10:39:55;;;;;;;2.90;1.40;;;23.60;51.30;;;;;;5046499;28;20852;-52
2022/10/25 10:42:36;;;;;;;3.07;1.13;;;23.50;51.30;;;;;;5033155;28;21124;-55
2022/10/25 10:45:06;;;;;;;4.80;1.50;;;23.60;51.20;;;;;;5028010;28;20479;-54
2022/10/25 10:47:48;;;;;;;2.00;1.10;;;23.70;51.90;;;;;;5027366;28;20431;-54
2022/10/25 10:50:23;;;;;;;3.10;1.40;;;23.80;51.60;;;;;;5038725;28;20478;-55
2022/10/25 10:52:51;;;;;;;2.80;2.53;;;23.90;51.90;;;;;;5029982;28;20517;-51
2022/10/25 10:55:34;;;;;;;5.50;1.87;;;24.00;50.60;;;;;;5027811;28;20448;-53
2022/10/25 10:58:28;;;;;;;1.30;1.20;;;24.30;51.00;;;;;;5042255;28;20532;-53
2022/10/25 11:00:59;;;;;;;1.47;1.30;;;24.40;50.00;;;;;;5020496;28;20877;-53
2022/10/25 11:03:39;;;;;;;3.40;1.53;;;24.50;50.70;;;;;;5027022;28;20444;-55
2022/10/25 11:06:13;;;;;;;1.20;1.10;;;24.70;49.80;;;;;;5025649;28;20451;-53
2022/10/25 11:08:40;;;;;;;2.93;1.40;;;24.80;50.40;;;;;;5027799;28;20582;-54
2022/10/25 11:11:23;;;;;;;3.73;1.40;;;24.70;50.00;;;;;;5029677;28;20439;-55
2022/10/25 11:13:55;;;;;;;2.80;1.37;;;24.90;49.50;;;;;;5032377;28;20528;-54
2022/10/25 11:16:29;;;;;;;4.80;1.47;;;24.90;49.30;;;;;;5026725;28;20486;-54
2022/10/25 11:19:10;;;;;;;3.60;1.70;;;24.90;49.10;;;;;;5027442;28;20885;-52
2022/10/25 11:21:53;;;;;;;3.27;1.80;;;24.90;49.70;;;;;;5036430;28;20520;-53
2022/10/25 11:24:40;;;;;;;3.27;1.23;;;25.10;49.40;;;;;;5028061;28;20455;-51
2022/10/25 11:27:43;;;;;;;5.43;1.43;;;25.20;48.60;;;;;;5026428;28;20447;-53
2022/10/25 11:30:16;;;;;;;14.93;1.97;;;25.20;49.00;;;;;;4962127;28;20533;-55
2022/10/25 11:33:00;;;;;;;7.27;2.37;;;25.10;48.90;;;;;;5028155;28;20605;-54
2022/10/25 11:35:54;;;;;;;8.07;1.70;;;25.30;49.30;;;;;;5031028;28;20451;-54
2022/10/25 11:38:32;;;;;;;2.97;1.50;;;25.50;49.00;;;;;;5038610;28;20471;-54
2022/10/25 11:41:04;;;;;;;2.97;1.40;;;25.40;47.70;;;;;;5034021;28;20997;-56
2022/10/25 11:43:52;;;;;;;3.00;1.40;;;25.50;47.60;;;;;;5030136;28;20440;-55
2022/10/25 11:46:37;;;;;;;2.60;1.30;;;25.60;47.90;;;;;;5005532;28;21025;-54
2022/10/25 11:49:21;;;;;;;4.90;1.40;;;25.50;47.10;;;;;;5035566;28;20450;-56
2022/10/25 11:52:09;;;;;;;2.23;1.40;;;25.70;47.50;;;;;;5029583;28;20545;-54
2022/10/25 11:55:00;;;;;;;4.77;1.50;;;25.40;47.00;;;;;;5029998;28;20450;-54
2022/10/25 11:57:38;;;;;;;2.63;1.67;;;25.50;47.60;;;;;;5029449;28;20479;-57
2022/10/25 12:00:32;;;;;;;2.07;1.23;;;25.70;47.00;;;;;;5028106;28;21070;-55
2022/10/25 12:03:28;;;;;;;4.70;1.27;;;25.90;46.40;;;;;;4988761;28;20474;-56
2022/10/25 12:06:15;;;;;;;2.73;1.37;;;26.20;45.90;;;;;;5027981;28;20814;-55
2022/10/25 12:09:02;;;;;;;4.40;1.73;;;26.10;45.30;;;;;;5032360;28;20526;-57
2022/10/25 12:11:32;;;;;;;2.37;1.30;;;26.20;45.00;;;;;;5031010;28;20483;-56
2022/10/25 12:14:03;;;;;;;2.03;1.20;;;26.10;44.90;;;;;;5031943;28;20538;-55
2022/10/25 12:16:30;;;;;;;3.50;1.43;;;26.30;45.10;;;;;;5035937;28;20465;-55
2022/10/25 12:19:01;;;;;;;1.93;1.00;;;26.30;44.20;;;;;;5036701;28;20454;-55
2022/10/25 12:21:35;;;;;;;1.40;0.87;;;25.80;44.00;;;;;;5033399;28;20841;-55
2022/10/25 12:24:03;;;;;;;2.33;1.00;;;25.80;43.90;;;;;;5032093;28;20485;-55
2022/10/25 12:26:34;;;;;;;1.83;1.43;;;25.90;44.70;;;;;;5027182;28;20471;-55
2022/10/25 12:29:15;;;;;;;2.70;1.03;;;25.80;44.90;;;;;;5030481;28;20509;-56
2022/10/25 12:31:57;;;;;;;5.17;1.30;;;25.80;44.20;;;;;;5034028;28;20498;-56
2022/10/25 12:34:46;;;;;;;2.13;1.10;;;25.90;44.80;;;;;;5034674;28;20479;-53
2022/10/25 12:37:38;;;;;;;3.40;1.37;;;26.00;46.20;;;;;;5035129;28;20486;-55
2022/10/25 12:40:06;;;;;;;3.40;1.30;;;26.20;47.80;;;;;;5035480;28;20932;-56
2022/10/25 12:42:44;;;;;;;2.47;1.23;;;26.30;47.90;;;;;;5027875;28;20439;-56
2022/10/25 12:45:09;;;;;;;3.80;2.00;;;26.30;48.10;;;;;;5032442;28;20450;-55
2022/10/25 12:47:59;;;;;;;2.93;1.27;;;26.20;47.90;;;;;;5038789;28;20435;-54
2022/10/25 12:50:52;;;;;;;5.97;1.70;;;26.00;48.50;;;;;;5037832;28;20220;-56
2022/10/25 12:53:44;;;;;;;5.07;1.80;;;26.00;48.90;;;;;;5044196;28;20459;-55
2022/10/25 12:56:34;;;;;;;6.77;1.87;;;26.10;49.00;;;;;;5044598;28;20444;-54
2022/10/25 12:59:18;;;;;;;5.70;1.60;;;26.00;48.80;;;;;;5044898;28;20439;-54
2022/10/25 13:02:02;;;;;;;3.00;1.67;;;26.00;49.10;;;;;;5044923;28;20477;-54
2022/10/25 13:05:04;;;;;;;2.50;1.20;;;26.10;48.70;;;;;;5041953;28;20458;-55
2022/10/25 13:07:32;;;;;;;2.87;1.20;;;26.00;48.40;;;;;;5046981;28;20454;-53
2022/10/25 13:10:19;;;;;;;6.20;1.90;;;25.90;48.70;;;;;;5041185;28;20889;-52
2022/10/25 13:13:20;;;;;;;5.43;1.63;;;25.90;50.00;;;;;;5027896;28;20459;-50